Accueil
METAR-TAF:

METAR-TAF

Aéroports :

Aéroport de l'île de Chios

Chios, Grèce

latitude: 38-20N, longitude: 026-08E, altitude: 5 m

Observation

Le bulletin a été fait il y a 47 minutes, à 09:50 UTC
Vent 6 kt de nord/nord-est
Température 28°C
Humidité 58%
Pression 1008 hPa
Visibilité 10 km ou plus
pas de nuages en-dessous de 1500 mètres et pas de cumulonimbus.

METAR: LGHI 160950Z 02006KT CAVOK 28/19 Q1008

Heure: 13:37 (10:37 UTC)

Prévision

Le bulletin a été fait il y a 2 heures et 37 minutes, à 08:00 UTC
Prévision valable du 16 à 09 UTC au 16 à 18 UTC
Vent 10 kt de nord
Visibilité 10 km ou plus
Quelques nuages à une hauteur de 3000 ft

TAF: LGHI 160800Z 1609/1618 01010KT 9999 FEW030

Observations et prévisions météorologiques de plus de 4000 aéroports (messages METAR et TAF).

Les stations disponibles sont représentées par des disques jaunes et rouges sur la carte.

Passer la souris dessus pour voir le nom de la station.

Cliquer dessus pour voir les observations et prévisions météorologiques.

Pour changer de carte: cliquez sur les boutons verts avec une croix noire pour zoomer, sur le bouton vert avec un tiret pour effectuer un zoom arrière, ou sur les flèches vertes pour les cartes adjacentes.


METAR-TAF: